createdAt,value
2022-09-20T00:00:06.708Z,0.60
2022-09-20T00:02:38.092Z,0.62
2022-09-20T00:05:10.243Z,0.50
2022-09-20T00:07:43.724Z,0.47
2022-09-20T00:10:15.792Z,0.62
2022-09-20T00:12:47.749Z,0.60
2022-09-20T00:15:19.936Z,0.75
2022-09-20T00:17:51.907Z,0.42
2022-09-20T00:20:23.966Z,0.50
2022-09-20T00:22:55.919Z,0.57
2022-09-20T00:25:27.913Z,0.60
2022-09-20T00:27:59.896Z,0.70
2022-09-20T00:30:33.046Z,0.60
2022-09-20T00:33:05.321Z,0.80
2022-09-20T00:35:37.603Z,0.65
2022-09-20T00:38:10.662Z,0.50
2022-09-20T00:40:44.846Z,0.60
2022-09-20T00:43:18.766Z,0.70
2022-09-20T00:45:51.243Z,0.70
2022-09-20T00:48:29.017Z,0.42
2022-09-20T00:51:09.833Z,0.70
2022-09-20T00:53:47.158Z,0.90
2022-09-20T00:56:25.453Z,0.57
2022-09-20T00:59:03.334Z,0.70
2022-09-20T01:01:35.592Z,0.50
2022-09-20T01:04:08.845Z,0.60
2022-09-20T01:06:41.846Z,0.55
2022-09-20T01:09:13.785Z,0.60
2022-09-20T01:11:46.423Z,0.72
2022-09-20T01:14:23.764Z,0.60
2022-09-20T01:16:58.227Z,0.40
2022-09-20T01:19:33.130Z,0.57
2022-09-20T01:22:07.992Z,0.60
2022-09-20T01:24:45.950Z,0.60
2022-09-20T01:27:44.926Z,0.45
2022-09-20T01:30:19.723Z,0.70
2022-09-20T01:33:09.406Z,0.65
2022-09-20T01:35:44.580Z,0.42
2022-09-20T01:38:25.181Z,0.55
2022-09-20T01:41:12.483Z,0.70
2022-09-20T01:43:56.818Z,0.47
2022-09-20T01:46:34.396Z,0.75
2022-09-20T01:49:31.637Z,0.70
2022-09-20T01:52:33.701Z,0.80
2022-09-20T01:55:08.484Z,0.57
2022-09-20T01:58:09.051Z,0.50
2022-09-20T02:00:44.157Z,0.85
2022-09-20T02:03:31.472Z,0.80
2022-09-20T02:06:32.053Z,0.55
2022-09-20T02:09:29.513Z,0.65
2022-09-20T02:12:10.519Z,0.60
2022-09-20T02:15:00.396Z,0.80
2022-09-20T02:17:55.984Z,0.60
2022-09-20T02:20:41.975Z,0.80
2022-09-20T02:23:22.677Z,0.72
2022-09-20T02:26:00.759Z,0.65
2022-09-20T02:28:35.972Z,0.80
2022-09-20T02:31:25.774Z,0.57
2022-09-20T02:34:18.959Z,0.78
2022-09-20T02:36:57.091Z,0.90
2022-09-20T02:39:50.142Z,0.90
2022-09-20T02:42:39.901Z,0.68
2022-09-20T02:45:20.728Z,0.53
2022-09-20T02:47:55.500Z,0.50
2022-09-20T02:50:45.561Z,0.70
2022-09-20T02:53:29.224Z,0.80
2022-09-20T02:56:09.810Z,0.80
2022-09-20T02:59:13.209Z,0.70
2022-09-20T03:02:09.225Z,0.85
2022-09-20T03:04:46.916Z,0.80
2022-09-20T03:07:24.676Z,0.98
2022-09-20T03:10:05.305Z,0.82
2022-09-20T03:12:49.345Z,0.78
2022-09-20T03:15:33.419Z,0.68
2022-09-20T03:18:14.168Z,0.93
2022-09-20T03:21:14.863Z,0.80
2022-09-20T03:24:10.830Z,0.78
2022-09-20T03:26:48.555Z,0.90
2022-09-20T03:29:39.896Z,1.10
2022-09-20T03:32:37.203Z,0.90
2022-09-20T03:35:21.087Z,0.70
2022-09-20T03:37:58.987Z,0.90
2022-09-20T03:40:45.600Z,0.70
2022-09-20T03:43:16.708Z,1.10
2022-09-20T03:46:04.452Z,0.68
2022-09-20T03:48:51.551Z,0.88
2022-09-20T03:51:34.338Z,0.75
2022-09-20T03:54:25.058Z,0.60
2022-09-20T03:57:08.988Z,1.00
2022-09-20T04:00:11.088Z,0.75
2022-09-20T04:03:14.461Z,1.65
2022-09-20T04:06:22.295Z,1.30
2022-09-20T04:09:22.833Z,0.62
2022-09-20T04:12:12.790Z,1.67
2022-09-20T04:15:19.277Z,1.12
2022-09-20T04:18:10.287Z,0.75
2022-09-20T04:20:50.688Z,1.35
2022-09-20T04:23:43.511Z,1.45
2022-09-20T04:26:21.355Z,1.65
2022-09-20T04:29:05.837Z,1.00
2022-09-20T04:31:54.499Z,1.10
2022-09-20T04:34:31.109Z,1.17
2022-09-20T04:37:06.429Z,0.98
2022-09-20T04:39:50.383Z,0.90
2022-09-20T04:42:46.210Z,1.55
2022-09-20T04:45:43.579Z,0.98
2022-09-20T04:48:35.226Z,1.75
2022-09-20T04:51:28.363Z,1.05
2022-09-20T04:54:26.101Z,1.10
2022-09-20T04:57:20.539Z,1.12
2022-09-20T05:00:09.298Z,1.37
2022-09-20T05:03:06.833Z,0.95
2022-09-20T05:06:03.850Z,1.20
2022-09-20T05:08:44.669Z,1.25
2022-09-20T05:11:19.794Z,1.02
2022-09-20T05:17:08.056Z,1.00
2022-09-20T05:20:02.782Z,1.57
2022-09-20T05:22:54.873Z,0.90
2022-09-20T05:25:38.739Z,1.30
2022-09-20T05:28:22.784Z,1.50
2022-09-20T05:31:15.462Z,0.90
2022-09-20T05:34:02.223Z,1.10
2022-09-20T05:36:56.590Z,1.05
2022-09-20T05:39:34.363Z,1.12
2022-09-20T05:42:12.654Z,0.93
2022-09-20T05:44:59.256Z,1.05
2022-09-20T05:47:47.142Z,1.70
2022-09-20T05:50:55.816Z,1.52
2022-09-20T05:53:46.290Z,1.57
2022-09-20T05:56:27.624Z,1.72
2022-09-20T05:59:11.558Z,1.35
2022-09-20T06:02:13.427Z,1.45
2022-09-20T06:04:55.960Z,2.17
2022-09-20T06:07:43.178Z,1.10
2022-09-20T06:10:21.238Z,1.07
2022-09-20T06:13:21.509Z,0.95
2022-09-20T06:16:02.695Z,1.20
2022-09-20T06:18:52.999Z,1.20
2022-09-20T06:21:49.074Z,0.80
2022-09-20T06:24:36.031Z,2.12
2022-09-20T06:27:13.838Z,1.27
2022-09-20T06:29:49.106Z,1.20
2022-09-20T06:32:21.749Z,1.47
2022-09-20T06:34:54.620Z,1.50
2022-09-20T06:37:57.495Z,1.22
2022-09-20T06:40:55.597Z,1.12
2022-09-20T06:43:29.252Z,1.27
2022-09-20T06:46:01.669Z,0.80
2022-09-20T06:48:33.599Z,1.10
2022-09-20T06:51:05.809Z,1.85
2022-09-20T06:53:41.105Z,0.90
2022-09-20T06:56:16.153Z,1.30
2022-09-20T06:58:48.587Z,1.25
2022-09-20T07:01:29.808Z,1.30
2022-09-20T07:06:26.870Z,1.42
2022-09-20T07:08:58.892Z,1.52
2022-09-20T07:11:32.476Z,0.88
2022-09-20T07:14:19.261Z,1.12
2022-09-20T07:16:51.301Z,1.80
2022-09-20T07:19:23.475Z,1.72
2022-09-20T07:21:55.715Z,1.40
2022-09-20T07:24:29.484Z,1.47
2022-09-20T07:27:05.093Z,2.37
2022-09-20T07:29:37.151Z,1.20
2022-09-20T07:32:09.609Z,1.57
2022-09-20T07:34:43.219Z,0.88
2022-09-20T07:37:16.838Z,1.20
2022-09-20T07:39:49.028Z,1.23
2022-09-20T07:42:21.400Z,1.40
2022-09-20T07:44:54.049Z,1.60
2022-09-20T07:47:26.657Z,1.40
2022-09-20T07:49:59.215Z,1.50
2022-09-20T07:52:32.747Z,1.00
2022-09-20T07:55:05.178Z,0.90
2022-09-20T07:57:38.330Z,1.10
2022-09-20T08:00:12.756Z,1.22
2022-09-20T08:02:45.573Z,0.90
2022-09-20T08:05:17.655Z,1.17
2022-09-20T08:07:49.823Z,1.05
2022-09-20T08:10:22.096Z,1.40
2022-09-20T08:15:28.332Z,1.10
2022-09-20T08:18:00.439Z,1.37
2022-09-20T08:20:32.959Z,1.10
2022-09-20T08:23:22.461Z,1.52
2022-09-20T08:25:39.560Z,1.50
2022-09-20T08:28:11.592Z,1.30
2022-09-20T08:30:43.507Z,1.00
2022-09-20T08:33:15.395Z,1.77
2022-09-20T08:35:50.431Z,1.20
2022-09-20T08:41:21.592Z,1.50
2022-09-20T08:44:06.066Z,2.70
2022-09-20T08:46:46.943Z,4.83
2022-09-20T08:49:21.994Z,1.12
2022-09-20T08:51:54.940Z,1.10
2022-09-20T08:54:32.202Z,0.82
2022-09-20T08:57:07.443Z,0.98
2022-09-20T08:59:40.738Z,0.70
2022-09-20T09:02:21.776Z,0.78
2022-09-20T09:04:54.062Z,1.30
2022-09-20T09:07:29.064Z,0.70
2022-09-20T09:10:02.878Z,0.50
2022-09-20T09:12:36.810Z,1.00
2022-09-20T09:15:23.748Z,0.90
2022-09-20T09:17:56.212Z,1.10
2022-09-20T09:20:28.608Z,1.05
2022-09-20T09:23:04.811Z,1.00
2022-09-20T09:25:41.310Z,0.50
2022-09-20T09:28:16.967Z,0.62
2022-09-20T09:30:49.471Z,0.60
2022-09-20T09:33:30.564Z,0.80
2022-09-20T09:36:08.599Z,1.42
2022-09-20T09:38:44.634Z,0.85
2022-09-20T09:41:32.542Z,1.45
2022-09-20T09:44:08.779Z,1.42
2022-09-20T09:46:41.807Z,1.37
2022-09-20T09:49:22.977Z,2.02
2022-09-20T09:52:18.309Z,1.20
2022-09-20T09:54:52.938Z,2.37
2022-09-20T09:57:44.621Z,1.02
2022-09-20T10:00:24.745Z,1.02
2022-09-20T10:03:11.546Z,0.70
2022-09-20T10:06:04.700Z,1.37
2022-09-20T10:09:02.266Z,1.35
2022-09-20T10:11:53.961Z,1.42
2022-09-20T10:14:53.195Z,1.30
2022-09-20T10:17:52.945Z,1.30
2022-09-20T10:20:39.767Z,1.65
2022-09-20T10:24:01.314Z,3.60
2022-09-20T10:26:19.207Z,1.60
2022-09-20T10:29:03.459Z,2.15
2022-09-20T10:31:57.405Z,1.02
2022-09-20T10:34:38.459Z,1.60
2022-09-20T10:37:22.808Z,1.12
2022-09-20T10:40:19.038Z,1.47
2022-09-20T10:43:11.684Z,0.80
2022-09-20T10:46:27.500Z,1.42
2022-09-20T10:48:44.458Z,1.00
2022-09-20T10:51:36.935Z,2.17
2022-09-20T10:54:28.973Z,1.47
2022-09-20T10:57:03.949Z,0.95
2022-09-20T10:59:42.418Z,1.47
2022-09-20T11:02:38.718Z,0.90
2022-09-20T11:05:25.885Z,1.60
2022-09-20T11:08:19.184Z,1.40
2022-09-20T11:10:59.725Z,2.35
2022-09-20T11:13:44.451Z,1.77
2022-09-20T11:16:19.764Z,1.50
2022-09-20T11:19:12.877Z,0.98
2022-09-20T11:22:06.168Z,1.22
2022-09-20T11:24:44.170Z,1.85
2022-09-20T11:27:25.765Z,1.60
2022-09-20T11:30:15.805Z,1.10
2022-09-20T11:32:57.961Z,1.10
2022-09-20T11:35:32.881Z,1.80
2022-09-20T11:38:16.701Z,1.45
2022-09-20T11:40:57.822Z,1.20
2022-09-20T11:43:31.478Z,1.22
2022-09-20T11:46:06.768Z,1.10
2022-09-20T11:48:41.603Z,1.30
2022-09-20T11:51:19.741Z,2.17
2022-09-20T11:54:12.901Z,1.62
2022-09-20T11:56:53.872Z,1.20
2022-09-20T11:59:37.658Z,2.02
2022-09-20T12:02:29.110Z,1.70
2022-09-20T12:05:02.216Z,1.20
2022-09-20T12:07:40.213Z,1.95
2022-09-20T12:10:34.764Z,1.70
2022-09-20T12:13:10.123Z,1.35
2022-09-20T12:15:43.362Z,2.22
2022-09-20T12:18:36.466Z,1.47
2022-09-20T12:21:15.382Z,1.50
2022-09-20T12:23:47.244Z,1.10
2022-09-20T12:26:30.983Z,1.92
2022-09-20T12:29:05.575Z,2.10
2022-09-20T12:34:16.175Z,2.50
2022-09-20T12:36:53.910Z,2.22
2022-09-20T12:39:32.161Z,1.20
2022-09-20T12:42:12.682Z,1.45
2022-09-20T12:44:50.523Z,1.05
2022-09-20T12:47:28.072Z,1.62
2022-09-20T12:50:22.456Z,2.20
2022-09-20T12:53:07.164Z,1.83
2022-09-20T12:55:43.808Z,2.00
2022-09-20T12:58:23.037Z,1.37
2022-09-20T13:01:01.299Z,1.55
2022-09-20T13:03:39.052Z,1.80
2022-09-20T13:06:17.853Z,1.47
2022-09-20T13:09:04.835Z,1.75
2022-09-20T13:11:46.073Z,1.50
2022-09-20T13:14:33.160Z,2.08
2022-09-20T13:17:20.159Z,1.27
2022-09-20T13:19:53.737Z,1.42
2022-09-20T13:22:29.038Z,2.00
2022-09-20T13:25:07.175Z,1.35
2022-09-20T13:27:42.240Z,1.90
2022-09-20T13:30:30.454Z,1.55
2022-09-20T13:33:25.808Z,1.25
2022-09-20T13:38:32.716Z,1.60
2022-09-20T13:41:13.281Z,1.50
2022-09-20T13:43:48.237Z,1.60
2022-09-20T13:46:31.759Z,0.88
2022-09-20T13:49:20.458Z,1.80
2022-09-20T13:51:52.634Z,1.70
2022-09-20T13:54:30.577Z,2.58
2022-09-20T13:57:12.054Z,2.47
2022-09-20T13:59:48.944Z,3.40
2022-09-20T14:02:24.068Z,1.55
2022-09-20T14:04:58.929Z,1.42
2022-09-20T14:07:33.294Z,1.90
2022-09-20T14:10:05.974Z,9.25
2022-09-20T14:12:38.850Z,1.72
2022-09-20T14:15:12.134Z,1.67
2022-09-20T14:17:44.502Z,2.15
2022-09-20T14:20:18.222Z,2.00
2022-09-20T14:22:50.489Z,1.93
2022-09-20T14:25:28.063Z,2.08
2022-09-20T14:28:18.601Z,2.90
2022-09-20T14:30:50.740Z,3.52
2022-09-20T14:33:23.026Z,2.70
2022-09-20T14:35:55.145Z,1.75
2022-09-20T14:38:28.665Z,1.77
2022-09-20T14:41:01.087Z,1.42
2022-09-20T14:43:35.368Z,2.52
2022-09-20T14:46:18.272Z,1.57
2022-09-20T14:48:50.788Z,1.72
2022-09-20T14:51:26.527Z,1.85
2022-09-20T14:54:10.938Z,2.00
2022-09-20T14:56:46.553Z,3.12
2022-09-20T14:59:24.954Z,1.82
2022-09-20T15:02:06.233Z,1.60
2022-09-20T15:04:40.592Z,1.77
2022-09-20T15:07:13.614Z,1.75
2022-09-20T15:09:45.836Z,1.50
2022-09-20T15:12:20.118Z,2.92
2022-09-20T15:14:52.642Z,2.25
2022-09-20T15:17:25.542Z,2.27
2022-09-20T15:19:58.008Z,2.17
2022-09-20T15:22:31.940Z,2.40
2022-09-20T15:25:04.691Z,1.50
2022-09-20T15:27:37.031Z,2.17
2022-09-20T15:30:12.777Z,2.17
2022-09-20T15:32:46.041Z,1.90
2022-09-20T15:35:18.708Z,1.82
2022-09-20T15:37:51.047Z,1.72
2022-09-20T15:40:24.912Z,2.22
2022-09-20T15:43:00.639Z,1.15
2022-09-20T15:45:33.988Z,1.50
2022-09-20T15:48:06.789Z,1.98
2022-09-20T15:50:39.703Z,2.33
2022-09-20T15:53:12.512Z,1.55
2022-09-20T15:55:44.651Z,1.90
2022-09-20T15:58:17.222Z,1.95
2022-09-20T16:00:49.911Z,2.00
2022-09-20T16:03:22.712Z,1.80
2022-09-20T16:06:04.565Z,1.80
2022-09-20T16:08:39.408Z,2.20
2022-09-20T16:11:20.522Z,2.20
2022-09-20T16:13:58.986Z,1.90
2022-09-20T16:16:38.971Z,1.80
2022-09-20T16:19:21.240Z,2.08
2022-09-20T16:21:58.920Z,1.90
2022-09-20T16:24:33.232Z,1.95
2022-09-20T16:27:08.884Z,2.08
2022-09-20T16:29:41.251Z,2.10
2022-09-20T16:32:13.734Z,2.60
2022-09-20T16:34:46.068Z,1.90
2022-09-20T16:37:18.359Z,2.62
2022-09-20T16:39:50.575Z,3.33
2022-09-20T16:42:23.540Z,2.10
2022-09-20T16:44:56.074Z,2.20
2022-09-20T16:47:28.295Z,1.70
2022-09-20T16:50:00.606Z,2.30
2022-09-20T16:52:33.340Z,2.22
2022-09-20T16:55:05.908Z,1.82
2022-09-20T16:57:38.464Z,2.35
2022-09-20T17:00:12.199Z,1.75
2022-09-20T17:02:47.860Z,1.90
2022-09-20T17:05:19.905Z,2.50
2022-09-20T17:07:52.515Z,2.67
2022-09-20T17:10:25.541Z,2.42
2022-09-20T17:12:59.740Z,2.70
2022-09-20T17:15:32.146Z,2.65
2022-09-20T17:18:05.844Z,2.17
2022-09-20T17:20:39.592Z,2.20
2022-09-20T17:23:12.392Z,2.70
2022-09-20T17:25:45.276Z,1.80
2022-09-20T17:28:17.889Z,2.45
2022-09-20T17:30:50.606Z,3.55
2022-09-20T17:33:23.387Z,2.42
2022-09-20T17:35:56.233Z,2.67
2022-09-20T17:38:31.549Z,4.70
2022-09-20T17:41:09.514Z,2.65
2022-09-20T17:43:43.610Z,2.75
2022-09-20T17:46:23.058Z,2.67
2022-09-20T17:48:56.798Z,2.33
2022-09-20T17:51:32.249Z,2.27
2022-09-20T17:54:05.759Z,1.82
2022-09-20T17:56:40.926Z,2.95
2022-09-20T17:59:15.812Z,2.05
2022-09-20T18:01:51.570Z,2.20
2022-09-20T18:04:27.377Z,3.15
2022-09-20T18:07:02.055Z,3.02
2022-09-20T18:09:34.673Z,3.65
2022-09-20T18:12:07.527Z,2.65
2022-09-20T18:14:41.109Z,2.50
2022-09-20T18:17:13.826Z,2.45
2022-09-20T18:19:46.129Z,3.27
2022-09-20T18:22:18.783Z,2.85
2022-09-20T18:24:51.968Z,3.10
2022-09-20T18:27:24.808Z,4.30
2022-09-20T18:29:58.384Z,2.72
2022-09-20T18:32:31.173Z,2.70
2022-09-20T18:35:03.877Z,2.67
2022-09-20T18:37:37.146Z,3.02
2022-09-20T18:40:12.125Z,2.40
2022-09-20T18:42:44.567Z,3.08
2022-09-20T18:45:17.932Z,2.37
2022-09-20T18:47:51.749Z,3.17
2022-09-20T18:50:25.494Z,2.98
2022-09-20T18:53:05.286Z,2.60
2022-09-20T18:55:37.744Z,2.90
2022-09-20T18:58:12.509Z,2.55
2022-09-20T19:00:45.758Z,2.83
2022-09-20T19:03:21.106Z,3.83
2022-09-20T19:06:01.024Z,2.95
2022-09-20T19:08:42.385Z,2.85
2022-09-20T19:11:17.573Z,3.20
2022-09-20T19:14:10.224Z,3.22
2022-09-20T19:16:44.101Z,2.50
2022-09-20T19:19:43.542Z,3.20
2022-09-20T19:22:18.667Z,2.92
2022-09-20T19:25:13.356Z,2.80
2022-09-20T19:27:45.900Z,3.72
2022-09-20T19:30:18.864Z,3.10
2022-09-20T19:32:51.241Z,3.52
2022-09-20T19:35:29.080Z,3.17
2022-09-20T19:38:07.042Z,3.10
2022-09-20T19:40:54.601Z,3.00
2022-09-20T19:43:52.129Z,3.12
2022-09-20T19:46:48.230Z,3.35
2022-09-20T19:49:44.440Z,2.98
2022-09-20T19:52:16.959Z,3.72
2022-09-20T19:54:50.067Z,3.55
2022-09-20T19:57:27.559Z,3.95
2022-09-20T19:59:59.781Z,3.75
2022-09-20T20:02:33.685Z,3.35
2022-09-20T20:05:06.507Z,3.40
2022-09-20T20:07:45.702Z,3.40
2022-09-20T20:10:29.182Z,4.03
2022-09-20T20:13:04.153Z,3.30
2022-09-20T20:15:39.138Z,3.80
2022-09-20T20:18:38.144Z,3.80
2022-09-20T20:21:15.799Z,3.67
2022-09-20T20:23:50.827Z,4.20
2022-09-20T20:26:25.141Z,4.10
2022-09-20T20:28:57.179Z,3.15
2022-09-20T20:31:30.451Z,3.25
2022-09-20T20:34:02.458Z,3.55
2022-09-20T20:36:34.494Z,3.87
2022-09-20T20:39:07.179Z,3.05
2022-09-20T20:41:40.779Z,3.20
2022-09-20T20:44:13.100Z,3.90
2022-09-20T20:46:45.370Z,4.10
2022-09-20T20:49:17.695Z,4.15
2022-09-20T20:51:50.170Z,3.90
2022-09-20T20:54:22.135Z,3.50
2022-09-20T20:56:54.408Z,3.92
2022-09-20T20:59:26.376Z,3.40
2022-09-20T21:01:58.425Z,4.03
2022-09-20T21:04:31.928Z,3.77
2022-09-20T21:07:04.278Z,4.42
2022-09-20T21:09:36.216Z,4.12
2022-09-20T21:12:09.373Z,4.17
2022-09-20T21:14:41.501Z,4.20
2022-09-20T21:17:13.760Z,4.60
2022-09-20T21:19:45.721Z,4.33
2022-09-20T21:22:17.649Z,4.28
2022-09-20T21:24:50.841Z,4.60
2022-09-20T21:27:22.667Z,4.78
2022-09-20T21:29:54.729Z,4.35
2022-09-20T21:32:26.615Z,5.28
2022-09-20T21:34:59.369Z,4.90
2022-09-20T21:37:32.896Z,4.95
2022-09-20T21:40:04.982Z,4.67
2022-09-20T21:42:36.916Z,5.03
2022-09-20T21:45:10.884Z,5.20
2022-09-20T21:47:42.787Z,5.47
2022-09-20T21:50:15.615Z,5.42
2022-09-20T21:52:48.277Z,5.12
2022-09-20T21:55:20.252Z,5.17
2022-09-20T21:57:53.257Z,5.78
2022-09-20T22:00:26.793Z,5.42
2022-09-20T22:02:59.251Z,5.35
2022-09-20T22:05:31.191Z,6.22
2022-09-20T22:08:03.224Z,5.28
2022-09-20T22:10:35.195Z,5.92
2022-09-20T22:13:07.584Z,5.35
2022-09-20T22:15:39.767Z,5.72
2022-09-20T22:18:11.775Z,5.70
2022-09-20T22:20:43.709Z,6.65
2022-09-20T22:23:16.535Z,6.62
2022-09-20T22:25:48.403Z,6.40
2022-09-20T22:28:20.290Z,5.90
2022-09-20T22:30:52.600Z,6.42
2022-09-20T22:33:24.616Z,7.03
2022-09-20T22:35:56.552Z,6.22
2022-09-20T22:38:30.335Z,7.30
2022-09-20T22:41:02.666Z,6.50
2022-09-20T22:43:36.315Z,6.75
2022-09-20T22:46:12.003Z,7.17
2022-09-20T22:48:44.700Z,6.75
2022-09-20T22:51:21.443Z,6.70
2022-09-20T22:53:53.495Z,6.92
2022-09-20T22:56:29.113Z,8.68
2022-09-20T22:59:03.422Z,7.42
2022-09-20T23:01:37.899Z,8.60
2022-09-20T23:04:15.638Z,7.62
2022-09-20T23:06:51.315Z,8.75
2022-09-20T23:09:25.072Z,8.95
2022-09-20T23:11:57.122Z,8.60
2022-09-20T23:14:29.244Z,9.20
2022-09-20T23:17:01.393Z,8.75
2022-09-20T23:19:33.204Z,8.85
2022-09-20T23:22:05.476Z,9.30
2022-09-20T23:24:37.379Z,9.75
2022-09-20T23:27:09.267Z,9.98
2022-09-20T23:29:41.262Z,9.85
2022-09-20T23:32:13.147Z,10.58
2022-09-20T23:34:45.119Z,9.50
2022-09-20T23:37:17.058Z,10.18
2022-09-20T23:39:49.021Z,10.40
2022-09-20T23:42:20.958Z,10.58
2022-09-20T23:44:52.931Z,10.53
2022-09-20T23:47:24.940Z,10.58
2022-09-20T23:49:57.194Z,11.10
2022-09-20T23:52:29.221Z,9.43
2022-09-20T23:55:01.093Z,11.18
2022-09-20T23:57:33.074Z,10.72
